This is the latest recevied weather packets stored in our database for station/object KQ4DLB-13. If no packets are shown the sender has not sent any weather packets the latest 10 day(s).
| Time | Temp. | Humidity | Pressure | Rain* | Wind** | Luminosity | Snow |
|---|---|---|---|---|---|---|---|
| 1777766102 | 12.22° C | 72% | 992.3 hPa | 0 mm | - | - | - |
| 1777765802 | 12.22° C | 71% | 992.3 hPa | 0 mm | - | - | - |
| 1777765502 | 12.78° C | 70% | 992.3 hPa | 0 mm | - | - | - |
| 1777765202 | 12.78° C | 70% | 992.3 hPa | 0 mm | - | - | - |
| 1777764902 | 13.33° C | 68% | 992.2 hPa | 0 mm | - | - | - |
| 1777764602 | 13.33° C | 67% | 992.3 hPa | 0 mm | - | - | - |
| 1777764302 | 13.33° C | 66% | 992.4 hPa | 0 mm | - | 125 W/m² | - |
| 1777764002 | 13.89° C | 66% | 992.3 hPa | 0 mm | - | 161 W/m² | - |
| 1777763702 | 13.89° C | 66% | 992.3 hPa | 0 mm | - | 180 W/m² | - |
| 1777763402 | 13.89° C | 66% | 992.3 hPa | 0 mm | - | 204 W/m² | - |
| 1777763102 | 13.89° C | 66% | 992.2 hPa | 0 mm | - | 233 W/m² | - |
| 1777762802 | 13.89° C | 67% | 992.2 hPa | 0 mm | - | 249 W/m² | - |
| 1777762502 | 13.89° C | 67% | 992.1 hPa | 0 mm | - | 272 W/m² | - |
| 1777762202 | 13.89° C | 66% | 992.2 hPa | 0 mm | - | 318 W/m² | - |
| 1777761903 | 13.89° C | 67% | 992.2 hPa | 0 mm | - | 347 W/m² | - |
| 1777761601 | 13.89° C | 68% | 991.9 hPa | 0 mm | - | 245 W/m² | - |
| 1777761302 | 13.89° C | 66% | 991.7 hPa | 0 mm | - | 129 W/m² | - |
| 1777761002 | 14.44° C | 65% | 991.7 hPa | 0 mm | - | - | - |
| 1777760702 | 15° C | 66% | 991.8 hPa | 0 mm | - | 266 W/m² | - |
| 1777760402 | 15° C | 65% | 991.8 hPa | 0 mm | - | 404 W/m² | - |
| 1777760102 | 15° C | 64% | 991.7 hPa | 0 mm | - | 428 W/m² | - |
| 1777759802 | 15° C | 64% | 991.6 hPa | 0 mm | - | 456 W/m² | - |
| 1777759501 | 15° C | 61% | 991.3 hPa | 0 mm | - | 476 W/m² | - |
| 1777759203 | 15° C | 61% | 991.2 hPa | 0 mm | - | 490 W/m² | - |
| 1777758902 | 14.44° C | 59% | 991 hPa | 0 mm | - | 507 W/m² | - |
* Rain latest hour (hover to see other rain measurements)
** Current wind speed in m/s (hover to see current wind gust speed)